sensor_id;sensor_type;location;lat;lon;timestamp;P1;durP1;ratioP1;P2;durP2;ratioP2
5587;SDS011;2816;49.778;9.986;2024-01-30T00:01:08;20.47;;;11.10;;
5587;SDS011;2816;49.778;9.986;2024-01-30T00:03:35;23.93;;;12.20;;
5587;SDS011;2816;49.778;9.986;2024-01-30T00:06:02;14.17;;;10.47;;
5587;SDS011;2816;49.778;9.986;2024-01-30T00:08:31;19.50;;;11.53;;
5587;SDS011;2816;49.778;9.986;2024-01-30T00:10:58;19.07;;;11.70;;
5587;SDS011;2816;49.778;9.986;2024-01-30T00:13:25;19.33;;;10.80;;
5587;SDS011;2816;49.778;9.986;2024-01-30T00:15:52;16.63;;;11.40;;
5587;SDS011;2816;49.778;9.986;2024-01-30T00:18:19;15.73;;;10.47;;
5587;SDS011;2816;49.778;9.986;2024-01-30T00:20:46;19.73;;;11.40;;
5587;SDS011;2816;49.778;9.986;2024-01-30T00:23:13;19.80;;;11.20;;
5587;SDS011;2816;49.778;9.986;2024-01-30T00:25:41;15.77;;;9.90;;
5587;SDS011;2816;49.778;9.986;2024-01-30T00:28:08;18.20;;;11.10;;
5587;SDS011;2816;49.778;9.986;2024-01-30T00:30:35;14.80;;;10.60;;
5587;SDS011;2816;49.778;9.986;2024-01-30T00:33:02;23.30;;;11.80;;
5587;SDS011;2816;49.778;9.986;2024-01-30T00:35:29;18.50;;;10.53;;
5587;SDS011;2816;49.778;9.986;2024-01-30T00:37:57;27.50;;;12.20;;
5587;SDS011;2816;49.778;9.986;2024-01-30T00:40:25;18.23;;;11.70;;
5587;SDS011;2816;49.778;9.986;2024-01-30T00:42:53;20.17;;;11.80;;
5587;SDS011;2816;49.778;9.986;2024-01-30T00:45:20;17.20;;;10.50;;
5587;SDS011;2816;49.778;9.986;2024-01-30T00:47:47;20.40;;;11.73;;
5587;SDS011;2816;49.778;9.986;2024-01-30T00:50:14;19.10;;;10.03;;
5587;SDS011;2816;49.778;9.986;2024-01-30T00:52:42;16.97;;;11.00;;
5587;SDS011;2816;49.778;9.986;2024-01-30T00:55:10;16.27;;;10.53;;
5587;SDS011;2816;49.778;9.986;2024-01-30T00:57:37;15.73;;;10.37;;
5587;SDS011;2816;49.778;9.986;2024-01-30T01:00:07;16.37;;;11.00;;
5587;SDS011;2816;49.778;9.986;2024-01-30T01:02:34;19.13;;;10.67;;
5587;SDS011;2816;49.778;9.986;2024-01-30T01:05:02;17.17;;;10.53;;
5587;SDS011;2816;49.778;9.986;2024-01-30T01:07:30;14.33;;;10.17;;
5587;SDS011;2816;49.778;9.986;2024-01-30T01:09:56;16.60;;;10.30;;
5587;SDS011;2816;49.778;9.986;2024-01-30T01:12:23;17.00;;;9.80;;
5587;SDS011;2816;49.778;9.986;2024-01-30T01:14:50;18.30;;;9.93;;
5587;SDS011;2816;49.778;9.986;2024-01-30T01:17:19;20.43;;;11.20;;
5587;SDS011;2816;49.778;9.986;2024-01-30T01:19:46;15.90;;;9.87;;
5587;SDS011;2816;49.778;9.986;2024-01-30T01:22:12;13.20;;;8.63;;
5587;SDS011;2816;49.778;9.986;2024-01-30T01:24:39;16.40;;;9.90;;
5587;SDS011;2816;49.778;9.986;2024-01-30T01:27:06;21.20;;;10.47;;
5587;SDS011;2816;49.778;9.986;2024-01-30T01:29:33;16.70;;;9.77;;
5587;SDS011;2816;49.778;9.986;2024-01-30T01:32:00;17.43;;;10.43;;
5587;SDS011;2816;49.778;9.986;2024-01-30T01:34:28;20.67;;;9.83;;
5587;SDS011;2816;49.778;9.986;2024-01-30T01:36:55;13.47;;;9.20;;
5587;SDS011;2816;49.778;9.986;2024-01-30T01:39:22;15.90;;;9.57;;
5587;SDS011;2816;49.778;9.986;2024-01-30T01:41:49;22.90;;;10.00;;
5587;SDS011;2816;49.778;9.986;2024-01-30T01:44:17;13.37;;;9.07;;
5587;SDS011;2816;49.778;9.986;2024-01-30T01:46:44;20.00;;;9.97;;
5587;SDS011;2816;49.778;9.986;2024-01-30T01:49:11;15.03;;;9.60;;
5587;SDS011;2816;49.778;9.986;2024-01-30T01:51:41;15.50;;;9.60;;
5587;SDS011;2816;49.778;9.986;2024-01-30T01:54:09;19.03;;;9.97;;
5587;SDS011;2816;49.778;9.986;2024-01-30T01:56:37;19.37;;;9.60;;
5587;SDS011;2816;49.778;9.986;2024-01-30T01:59:05;15.70;;;9.27;;
5587;SDS011;2816;49.778;9.986;2024-01-30T02:01:33;18.73;;;10.07;;
5587;SDS011;2816;49.778;9.986;2024-01-30T02:04:02;15.30;;;9.33;;
5587;SDS011;2816;49.778;9.986;2024-01-30T02:06:29;17.17;;;9.93;;
5587;SDS011;2816;49.778;9.986;2024-01-30T02:08:58;16.57;;;9.60;;
5587;SDS011;2816;49.778;9.986;2024-01-30T02:11:25;15.20;;;9.37;;
5587;SDS011;2816;49.778;9.986;2024-01-30T02:13:52;17.50;;;10.13;;
5587;SDS011;2816;49.778;9.986;2024-01-30T02:16:19;12.37;;;9.07;;
5587;SDS011;2816;49.778;9.986;2024-01-30T02:18:46;14.43;;;10.10;;
5587;SDS011;2816;49.778;9.986;2024-01-30T02:21:15;15.60;;;8.87;;
5587;SDS011;2816;49.778;9.986;2024-01-30T02:23:43;15.70;;;9.30;;
5587;SDS011;2816;49.778;9.986;2024-01-30T02:26:10;16.57;;;9.40;;
5587;SDS011;2816;49.778;9.986;2024-01-30T02:28:38;17.33;;;9.70;;
5587;SDS011;2816;49.778;9.986;2024-01-30T02:31:05;17.33;;;9.83;;
5587;SDS011;2816;49.778;9.986;2024-01-30T02:33:32;17.87;;;10.40;;
5587;SDS011;2816;49.778;9.986;2024-01-30T02:35:59;13.33;;;9.23;;
5587;SDS011;2816;49.778;9.986;2024-01-30T02:38:27;17.73;;;10.23;;
5587;SDS011;2816;49.778;9.986;2024-01-30T02:40:54;14.83;;;9.77;;
5587;SDS011;2816;49.778;9.986;2024-01-30T02:43:21;16.10;;;9.40;;
5587;SDS011;2816;49.778;9.986;2024-01-30T02:45:49;18.57;;;9.50;;
5587;SDS011;2816;49.778;9.986;2024-01-30T02:48:15;15.90;;;10.30;;
5587;SDS011;2816;49.778;9.986;2024-01-30T02:50:43;15.80;;;9.47;;
5587;SDS011;2816;49.778;9.986;2024-01-30T02:53:11;16.43;;;9.23;;
5587;SDS011;2816;49.778;9.986;2024-01-30T02:55:39;22.33;;;10.43;;
5587;SDS011;2816;49.778;9.986;2024-01-30T02:58:06;16.27;;;9.90;;
5587;SDS011;2816;49.778;9.986;2024-01-30T03:00:33;21.00;;;10.53;;
5587;SDS011;2816;49.778;9.986;2024-01-30T03:03:00;22.23;;;10.60;;
5587;SDS011;2816;49.778;9.986;2024-01-30T03:05:27;16.43;;;10.27;;
5587;SDS011;2816;49.778;9.986;2024-01-30T03:07:54;16.70;;;9.87;;
5587;SDS011;2816;49.778;9.986;2024-01-30T03:10:22;19.53;;;10.97;;
5587;SDS011;2816;49.778;9.986;2024-01-30T03:12:51;19.77;;;10.47;;
5587;SDS011;2816;49.778;9.986;2024-01-30T03:15:18;15.20;;;9.57;;
5587;SDS011;2816;49.778;9.986;2024-01-30T03:17:45;17.23;;;10.53;;
5587;SDS011;2816;49.778;9.986;2024-01-30T03:20:12;17.17;;;10.90;;
5587;SDS011;2816;49.778;9.986;2024-01-30T03:22:39;17.70;;;10.63;;
5587;SDS011;2816;49.778;9.986;2024-01-30T03:25:06;18.20;;;10.43;;
5587;SDS011;2816;49.778;9.986;2024-01-30T03:27:34;14.87;;;9.77;;
5587;SDS011;2816;49.778;9.986;2024-01-30T03:30:02;16.33;;;11.03;;
5587;SDS011;2816;49.778;9.986;2024-01-30T03:32:29;19.43;;;10.80;;
5587;SDS011;2816;49.778;9.986;2024-01-30T03:34:56;17.60;;;10.10;;
5587;SDS011;2816;49.778;9.986;2024-01-30T03:37:23;16.30;;;9.67;;
5587;SDS011;2816;49.778;9.986;2024-01-30T03:39:50;14.57;;;9.40;;
5587;SDS011;2816;49.778;9.986;2024-01-30T03:42:17;22.50;;;9.73;;
5587;SDS011;2816;49.778;9.986;2024-01-30T03:44:44;16.33;;;10.20;;
5587;SDS011;2816;49.778;9.986;2024-01-30T03:47:12;17.80;;;10.70;;
5587;SDS011;2816;49.778;9.986;2024-01-30T03:49:39;14.97;;;10.60;;
5587;SDS011;2816;49.778;9.986;2024-01-30T03:52:06;17.63;;;10.70;;
5587;SDS011;2816;49.778;9.986;2024-01-30T03:54:34;18.50;;;10.40;;
5587;SDS011;2816;49.778;9.986;2024-01-30T03:57:01;13.83;;;9.87;;
5587;SDS011;2816;49.778;9.986;2024-01-30T03:59:28;18.00;;;10.30;;
5587;SDS011;2816;49.778;9.986;2024-01-30T04:01:55;16.23;;;8.87;;
5587;SDS011;2816;49.778;9.986;2024-01-30T04:04:23;17.67;;;10.07;;
5587;SDS011;2816;49.778;9.986;2024-01-30T04:06:50;16.03;;;10.13;;
5587;SDS011;2816;49.778;9.986;2024-01-30T04:09:17;16.60;;;9.67;;
5587;SDS011;2816;49.778;9.986;2024-01-30T04:11:43;17.97;;;9.53;;
5587;SDS011;2816;49.778;9.986;2024-01-30T04:14:10;15.20;;;9.90;;
5587;SDS011;2816;49.778;9.986;2024-01-30T04:16:37;15.40;;;9.83;;
5587;SDS011;2816;49.778;9.986;2024-01-30T04:19:04;15.50;;;9.03;;
5587;SDS011;2816;49.778;9.986;2024-01-30T04:21:32;15.30;;;9.77;;
5587;SDS011;2816;49.778;9.986;2024-01-30T04:23:59;14.20;;;9.50;;
5587;SDS011;2816;49.778;9.986;2024-01-30T04:26:26;13.40;;;9.03;;
5587;SDS011;2816;49.778;9.986;2024-01-30T04:28:53;14.93;;;9.33;;
5587;SDS011;2816;49.778;9.986;2024-01-30T04:31:20;16.03;;;9.90;;
5587;SDS011;2816;49.778;9.986;2024-01-30T04:33:47;16.00;;;9.67;;
5587;SDS011;2816;49.778;9.986;2024-01-30T04:36:14;17.87;;;10.80;;
5587;SDS011;2816;49.778;9.986;2024-01-30T04:38:42;17.53;;;10.73;;
5587;SDS011;2816;49.778;9.986;2024-01-30T04:41:09;17.53;;;10.40;;
5587;SDS011;2816;49.778;9.986;2024-01-30T04:43:36;15.97;;;9.70;;
5587;SDS011;2816;49.778;9.986;2024-01-30T04:46:03;16.77;;;9.50;;
5587;SDS011;2816;49.778;9.986;2024-01-30T04:48:30;23.60;;;11.17;;
5587;SDS011;2816;49.778;9.986;2024-01-30T04:50:57;17.03;;;10.10;;
5587;SDS011;2816;49.778;9.986;2024-01-30T04:53:27;18.33;;;10.30;;
5587;SDS011;2816;49.778;9.986;2024-01-30T04:55:57;18.40;;;9.20;;
5587;SDS011;2816;49.778;9.986;2024-01-30T04:58:24;17.93;;;10.40;;
5587;SDS011;2816;49.778;9.986;2024-01-30T05:00:50;13.87;;;9.13;;
5587;SDS011;2816;49.778;9.986;2024-01-30T05:03:17;17.80;;;11.17;;
5587;SDS011;2816;49.778;9.986;2024-01-30T05:05:45;14.67;;;9.47;;
5587;SDS011;2816;49.778;9.986;2024-01-30T05:08:11;14.30;;;9.47;;
5587;SDS011;2816;49.778;9.986;2024-01-30T05:10:38;13.43;;;8.63;;
5587;SDS011;2816;49.778;9.986;2024-01-30T05:13:07;14.17;;;9.67;;
5587;SDS011;2816;49.778;9.986;2024-01-30T05:15:33;15.97;;;9.17;;
5587;SDS011;2816;49.778;9.986;2024-01-30T05:18:00;15.13;;;9.40;;
5587;SDS011;2816;49.778;9.986;2024-01-30T05:20:28;12.27;;;8.70;;
5587;SDS011;2816;49.778;9.986;2024-01-30T05:22:54;15.90;;;10.17;;
5587;SDS011;2816;49.778;9.986;2024-01-30T05:25:21;13.13;;;9.53;;
5587;SDS011;2816;49.778;9.986;2024-01-30T05:27:48;16.80;;;9.90;;
5587;SDS011;2816;49.778;9.986;2024-01-30T05:30:17;13.83;;;9.37;;
5587;SDS011;2816;49.778;9.986;2024-01-30T05:32:43;14.90;;;8.97;;
5587;SDS011;2816;49.778;9.986;2024-01-30T05:35:10;15.30;;;8.80;;
5587;SDS011;2816;49.778;9.986;2024-01-30T05:37:37;17.97;;;8.37;;
5587;SDS011;2816;49.778;9.986;2024-01-30T05:40:04;15.33;;;9.80;;
5587;SDS011;2816;49.778;9.986;2024-01-30T05:42:33;16.20;;;10.10;;
5587;SDS011;2816;49.778;9.986;2024-01-30T05:44:59;13.40;;;9.20;;
5587;SDS011;2816;49.778;9.986;2024-01-30T05:47:28;16.80;;;9.50;;
5587;SDS011;2816;49.778;9.986;2024-01-30T05:49:55;16.93;;;10.13;;
5587;SDS011;2816;49.778;9.986;2024-01-30T05:52:21;17.90;;;9.97;;
5587;SDS011;2816;49.778;9.986;2024-01-30T05:54:48;14.60;;;9.30;;
5587;SDS011;2816;49.778;9.986;2024-01-30T05:57:15;14.90;;;10.23;;
5587;SDS011;2816;49.778;9.986;2024-01-30T05:59:42;18.53;;;10.87;;
5587;SDS011;2816;49.778;9.986;2024-01-30T06:02:12;15.57;;;9.93;;
5587;SDS011;2816;49.778;9.986;2024-01-30T06:04:40;12.93;;;8.93;;
5587;SDS011;2816;49.778;9.986;2024-01-30T06:07:07;20.93;;;9.87;;
5587;SDS011;2816;49.778;9.986;2024-01-30T06:09:34;16.70;;;10.83;;
5587;SDS011;2816;49.778;9.986;2024-01-30T06:12:01;20.63;;;11.80;;
5587;SDS011;2816;49.778;9.986;2024-01-30T06:14:29;18.37;;;11.30;;
5587;SDS011;2816;49.778;9.986;2024-01-30T06:16:57;27.37;;;13.70;;
5587;SDS011;2816;49.778;9.986;2024-01-30T06:19:24;19.90;;;12.10;;
5587;SDS011;2816;49.778;9.986;2024-01-30T06:21:53;18.57;;;11.90;;
5587;SDS011;2816;49.778;9.986;2024-01-30T06:24:19;22.40;;;12.57;;
5587;SDS011;2816;49.778;9.986;2024-01-30T06:26:46;19.90;;;12.40;;
5587;SDS011;2816;49.778;9.986;2024-01-30T06:29:13;19.00;;;11.40;;
5587;SDS011;2816;49.778;9.986;2024-01-30T06:31:41;19.20;;;11.33;;
5587;SDS011;2816;49.778;9.986;2024-01-30T06:34:08;20.07;;;12.20;;
5587;SDS011;2816;49.778;9.986;2024-01-30T06:36:36;24.33;;;12.13;;
5587;SDS011;2816;49.778;9.986;2024-01-30T06:39:04;30.07;;;12.93;;
5587;SDS011;2816;49.778;9.986;2024-01-30T06:41:31;23.33;;;13.50;;
5587;SDS011;2816;49.778;9.986;2024-01-30T06:43:58;22.50;;;14.60;;
5587;SDS011;2816;49.778;9.986;2024-01-30T06:46:25;25.70;;;15.60;;
5587;SDS011;2816;49.778;9.986;2024-01-30T06:48:52;32.03;;;14.27;;
5587;SDS011;2816;49.778;9.986;2024-01-30T06:51:19;22.63;;;13.17;;
5587;SDS011;2816;49.778;9.986;2024-01-30T06:53:46;22.73;;;14.30;;
5587;SDS011;2816;49.778;9.986;2024-01-30T06:56:14;25.00;;;13.67;;
5587;SDS011;2816;49.778;9.986;2024-01-30T06:58:45;19.20;;;12.53;;
5587;SDS011;2816;49.778;9.986;2024-01-30T07:01:12;25.97;;;12.73;;
5587;SDS011;2816;49.778;9.986;2024-01-30T07:03:40;24.03;;;12.80;;
5587;SDS011;2816;49.778;9.986;2024-01-30T07:06:07;23.27;;;13.70;;
5587;SDS011;2816;49.778;9.986;2024-01-30T07:08:34;21.30;;;12.57;;
5587;SDS011;2816;49.778;9.986;2024-01-30T07:11:02;22.67;;;12.00;;
5587;SDS011;2816;49.778;9.986;2024-01-30T07:13:30;19.83;;;12.30;;
5587;SDS011;2816;49.778;9.986;2024-01-30T07:15:57;25.30;;;10.93;;
5587;SDS011;2816;49.778;9.986;2024-01-30T07:18:24;23.23;;;12.87;;
5587;SDS011;2816;49.778;9.986;2024-01-30T07:20:51;29.13;;;13.47;;
5587;SDS011;2816;49.778;9.986;2024-01-30T07:23:18;30.37;;;13.27;;
5587;SDS011;2816;49.778;9.986;2024-01-30T07:25:45;19.43;;;12.53;;
5587;SDS011;2816;49.778;9.986;2024-01-30T07:28:13;21.93;;;12.30;;
5587;SDS011;2816;49.778;9.986;2024-01-30T07:30:43;22.20;;;13.03;;
5587;SDS011;2816;49.778;9.986;2024-01-30T07:33:10;23.40;;;13.93;;
5587;SDS011;2816;49.778;9.986;2024-01-30T07:35:37;19.97;;;13.27;;
5587;SDS011;2816;49.778;9.986;2024-01-30T07:38:04;20.20;;;12.40;;
5587;SDS011;2816;49.778;9.986;2024-01-30T07:40:30;17.60;;;11.43;;
5587;SDS011;2816;49.778;9.986;2024-01-30T07:42:58;17.90;;;10.60;;
5587;SDS011;2816;49.778;9.986;2024-01-30T07:45:25;18.33;;;10.53;;
5587;SDS011;2816;49.778;9.986;2024-01-30T07:47:59;19.10;;;12.10;;
5587;SDS011;2816;49.778;9.986;2024-01-30T07:50:26;18.10;;;11.47;;
5587;SDS011;2816;49.778;9.986;2024-01-30T07:52:53;16.87;;;11.27;;
5587;SDS011;2816;49.778;9.986;2024-01-30T07:55:20;24.80;;;11.90;;
5587;SDS011;2816;49.778;9.986;2024-01-30T07:57:49;19.40;;;12.07;;
5587;SDS011;2816;49.778;9.986;2024-01-30T08:00:16;21.40;;;12.10;;
5587;SDS011;2816;49.778;9.986;2024-01-30T08:02:44;23.30;;;13.57;;
5587;SDS011;2816;49.778;9.986;2024-01-30T08:05:22;24.50;;;14.17;;
5587;SDS011;2816;49.778;9.986;2024-01-30T08:07:49;20.20;;;12.17;;
5587;SDS011;2816;49.778;9.986;2024-01-30T08:10:16;21.90;;;12.80;;
5587;SDS011;2816;49.778;9.986;2024-01-30T08:12:45;24.53;;;12.77;;
5587;SDS011;2816;49.778;9.986;2024-01-30T08:15:12;20.87;;;13.63;;
5587;SDS011;2816;49.778;9.986;2024-01-30T08:17:39;22.00;;;12.90;;
5587;SDS011;2816;49.778;9.986;2024-01-30T08:20:06;22.57;;;12.60;;
5587;SDS011;2816;49.778;9.986;2024-01-30T08:22:37;26.20;;;14.37;;
5587;SDS011;2816;49.778;9.986;2024-01-30T08:25:05;19.20;;;12.80;;
5587;SDS011;2816;49.778;9.986;2024-01-30T08:27:33;22.23;;;13.90;;
5587;SDS011;2816;49.778;9.986;2024-01-30T08:30:00;26.37;;;14.93;;
5587;SDS011;2816;49.778;9.986;2024-01-30T08:32:27;20.70;;;13.17;;
5587;SDS011;2816;49.778;9.986;2024-01-30T08:34:54;24.80;;;14.10;;
5587;SDS011;2816;49.778;9.986;2024-01-30T08:37:21;21.83;;;12.60;;
5587;SDS011;2816;49.778;9.986;2024-01-30T08:39:49;18.90;;;13.40;;
5587;SDS011;2816;49.778;9.986;2024-01-30T08:42:16;22.73;;;13.80;;
5587;SDS011;2816;49.778;9.986;2024-01-30T08:44:47;22.93;;;13.70;;
5587;SDS011;2816;49.778;9.986;2024-01-30T08:47:14;19.90;;;13.27;;
5587;SDS011;2816;49.778;9.986;2024-01-30T08:49:42;24.37;;;14.73;;
5587;SDS011;2816;49.778;9.986;2024-01-30T08:52:09;21.23;;;13.90;;
5587;SDS011;2816;49.778;9.986;2024-01-30T08:54:36;24.93;;;14.50;;
5587;SDS011;2816;49.778;9.986;2024-01-30T08:57:05;20.60;;;13.40;;
5587;SDS011;2816;49.778;9.986;2024-01-30T08:59:31;18.57;;;12.27;;
5587;SDS011;2816;49.778;9.986;2024-01-30T09:01:59;17.97;;;12.27;;
5587;SDS011;2816;49.778;9.986;2024-01-30T09:04:26;17.43;;;11.40;;
5587;SDS011;2816;49.778;9.986;2024-01-30T09:06:52;18.17;;;12.87;;
5587;SDS011;2816;49.778;9.986;2024-01-30T09:09:20;19.07;;;12.93;;
5587;SDS011;2816;49.778;9.986;2024-01-30T09:11:47;21.77;;;13.87;;
5587;SDS011;2816;49.778;9.986;2024-01-30T09:14:15;29.23;;;13.13;;
5587;SDS011;2816;49.778;9.986;2024-01-30T09:16:42;21.87;;;12.90;;
5587;SDS011;2816;49.778;9.986;2024-01-30T09:19:09;24.43;;;14.67;;
5587;SDS011;2816;49.778;9.986;2024-01-30T09:21:36;22.30;;;14.00;;
5587;SDS011;2816;49.778;9.986;2024-01-30T09:24:03;18.43;;;12.07;;
5587;SDS011;2816;49.778;9.986;2024-01-30T09:26:30;23.03;;;13.80;;
5587;SDS011;2816;49.778;9.986;2024-01-30T09:28:57;23.83;;;12.23;;
5587;SDS011;2816;49.778;9.986;2024-01-30T09:31:25;19.33;;;12.73;;
5587;SDS011;2816;49.778;9.986;2024-01-30T09:33:53;23.33;;;13.77;;
5587;SDS011;2816;49.778;9.986;2024-01-30T09:36:20;19.83;;;12.63;;
5587;SDS011;2816;49.778;9.986;2024-01-30T09:38:47;19.33;;;13.33;;
5587;SDS011;2816;49.778;9.986;2024-01-30T09:41:14;21.20;;;13.03;;
5587;SDS011;2816;49.778;9.986;2024-01-30T09:43:42;25.50;;;14.73;;
5587;SDS011;2816;49.778;9.986;2024-01-30T09:46:14;20.47;;;13.00;;
5587;SDS011;2816;49.778;9.986;2024-01-30T09:48:46;19.07;;;12.30;;
5587;SDS011;2816;49.778;9.986;2024-01-30T09:51:14;19.30;;;12.57;;
5587;SDS011;2816;49.778;9.986;2024-01-30T09:53:43;19.37;;;11.77;;
5587;SDS011;2816;49.778;9.986;2024-01-30T09:56:10;21.40;;;13.07;;
5587;SDS011;2816;49.778;9.986;2024-01-30T09:58:38;21.83;;;14.63;;
5587;SDS011;2816;49.778;9.986;2024-01-30T10:01:06;21.20;;;14.30;;
5587;SDS011;2816;49.778;9.986;2024-01-30T10:03:32;21.53;;;12.43;;
5587;SDS011;2816;49.778;9.986;2024-01-30T10:06:01;18.23;;;11.03;;
5587;SDS011;2816;49.778;9.986;2024-01-30T10:08:28;18.57;;;12.03;;
5587;SDS011;2816;49.778;9.986;2024-01-30T10:10:56;16.80;;;10.87;;
5587;SDS011;2816;49.778;9.986;2024-01-30T10:13:23;20.20;;;13.37;;
5587;SDS011;2816;49.778;9.986;2024-01-30T10:15:50;20.23;;;13.23;;
5587;SDS011;2816;49.778;9.986;2024-01-30T10:18:17;24.13;;;15.10;;
5587;SDS011;2816;49.778;9.986;2024-01-30T10:20:44;23.67;;;14.63;;
5587;SDS011;2816;49.778;9.986;2024-01-30T10:23:13;23.13;;;14.27;;
5587;SDS011;2816;49.778;9.986;2024-01-30T10:25:40;23.43;;;15.20;;
5587;SDS011;2816;49.778;9.986;2024-01-30T10:28:07;18.70;;;12.70;;
5587;SDS011;2816;49.778;9.986;2024-01-30T10:30:34;22.13;;;13.87;;
5587;SDS011;2816;49.778;9.986;2024-01-30T10:33:01;21.83;;;14.97;;
5587;SDS011;2816;49.778;9.986;2024-01-30T10:35:29;27.87;;;15.70;;
5587;SDS011;2816;49.778;9.986;2024-01-30T10:37:56;23.13;;;14.83;;
5587;SDS011;2816;49.778;9.986;2024-01-30T10:40:27;21.90;;;15.10;;
5587;SDS011;2816;49.778;9.986;2024-01-30T10:42:55;26.03;;;15.50;;
5587;SDS011;2816;49.778;9.986;2024-01-30T10:45:22;21.33;;;15.63;;
5587;SDS011;2816;49.778;9.986;2024-01-30T10:47:53;23.37;;;15.93;;
5587;SDS011;2816;49.778;9.986;2024-01-30T10:50:23;20.30;;;15.07;;
5587;SDS011;2816;49.778;9.986;2024-01-30T10:52:51;25.03;;;15.57;;
5587;SDS011;2816;49.778;9.986;2024-01-30T10:55:19;17.20;;;12.33;;
5587;SDS011;2816;49.778;9.986;2024-01-30T10:57:50;16.80;;;12.00;;
5587;SDS011;2816;49.778;9.986;2024-01-30T11:00:18;19.10;;;12.20;;
5587;SDS011;2816;49.778;9.986;2024-01-30T11:02:48;21.73;;;13.90;;
5587;SDS011;2816;49.778;9.986;2024-01-30T11:05:23;23.60;;;13.70;;
5587;SDS011;2816;49.778;9.986;2024-01-30T11:07:51;18.70;;;13.00;;
5587;SDS011;2816;49.778;9.986;2024-01-30T11:10:18;24.23;;;14.40;;
5587;SDS011;2816;49.778;9.986;2024-01-30T11:12:45;24.53;;;14.03;;
5587;SDS011;2816;49.778;9.986;2024-01-30T11:15:15;27.30;;;13.47;;
5587;SDS011;2816;49.778;9.986;2024-01-30T11:17:43;21.27;;;13.87;;
5587;SDS011;2816;49.778;9.986;2024-01-30T11:20:10;24.77;;;12.77;;
5587;SDS011;2816;49.778;9.986;2024-01-30T11:22:40;19.43;;;11.67;;
5587;SDS011;2816;49.778;9.986;2024-01-30T11:25:11;19.10;;;12.43;;
5587;SDS011;2816;49.778;9.986;2024-01-30T11:27:38;22.83;;;14.10;;
5587;SDS011;2816;49.778;9.986;2024-01-30T11:30:06;22.60;;;13.63;;
5587;SDS011;2816;49.778;9.986;2024-01-30T11:32:35;25.20;;;14.20;;
5587;SDS011;2816;49.778;9.986;2024-01-30T11:35:04;23.50;;;14.53;;
5587;SDS011;2816;49.778;9.986;2024-01-30T11:37:34;20.13;;;12.93;;
5587;SDS011;2816;49.778;9.986;2024-01-30T11:40:04;23.57;;;13.27;;
5587;SDS011;2816;49.778;9.986;2024-01-30T11:42:32;15.40;;;11.97;;
5587;SDS011;2816;49.778;9.986;2024-01-30T11:45:00;25.70;;;14.97;;
5587;SDS011;2816;49.778;9.986;2024-01-30T11:47:28;17.57;;;11.20;;
5587;SDS011;2816;49.778;9.986;2024-01-30T11:49:57;22.20;;;14.80;;
5587;SDS011;2816;49.778;9.986;2024-01-30T11:52:24;24.63;;;16.00;;
5587;SDS011;2816;49.778;9.986;2024-01-30T11:54:51;20.00;;;13.50;;
5587;SDS011;2816;49.778;9.986;2024-01-30T11:57:17;21.67;;;13.57;;
5587;SDS011;2816;49.778;9.986;2024-01-30T11:59:44;20.53;;;12.77;;
5587;SDS011;2816;49.778;9.986;2024-01-30T12:02:15;25.40;;;14.93;;
5587;SDS011;2816;49.778;9.986;2024-01-30T12:04:42;22.10;;;14.37;;
5587;SDS011;2816;49.778;9.986;2024-01-30T12:07:11;17.77;;;13.30;;
5587;SDS011;2816;49.778;9.986;2024-01-30T12:09:38;22.60;;;14.30;;
5587;SDS011;2816;49.778;9.986;2024-01-30T12:12:06;24.90;;;15.23;;
5587;SDS011;2816;49.778;9.986;2024-01-30T12:14:38;22.60;;;15.70;;
5587;SDS011;2816;49.778;9.986;2024-01-30T12:17:05;22.90;;;15.87;;
5587;SDS011;2816;49.778;9.986;2024-01-30T12:19:34;25.27;;;16.37;;
5587;SDS011;2816;49.778;9.986;2024-01-30T12:22:01;20.70;;;13.60;;
5587;SDS011;2816;49.778;9.986;2024-01-30T12:24:30;26.57;;;15.37;;
5587;SDS011;2816;49.778;9.986;2024-01-30T12:26:57;28.20;;;17.80;;
5587;SDS011;2816;49.778;9.986;2024-01-30T12:29:25;25.27;;;17.07;;
5587;SDS011;2816;49.778;9.986;2024-01-30T12:31:52;26.40;;;17.10;;
5587;SDS011;2816;49.778;9.986;2024-01-30T12:34:20;27.30;;;15.73;;
5587;SDS011;2816;49.778;9.986;2024-01-30T12:36:46;28.97;;;16.93;;
5587;SDS011;2816;49.778;9.986;2024-01-30T12:39:14;20.60;;;15.20;;
5587;SDS011;2816;49.778;9.986;2024-01-30T12:41:42;20.40;;;15.30;;
5587;SDS011;2816;49.778;9.986;2024-01-30T12:44:09;24.93;;;16.03;;
5587;SDS011;2816;49.778;9.986;2024-01-30T12:46:36;23.50;;;15.20;;
5587;SDS011;2816;49.778;9.986;2024-01-30T12:49:03;32.97;;;16.23;;
5587;SDS011;2816;49.778;9.986;2024-01-30T12:51:30;25.07;;;15.77;;
5587;SDS011;2816;49.778;9.986;2024-01-30T12:54:03;17.90;;;13.37;;
5587;SDS011;2816;49.778;9.986;2024-01-30T12:56:31;13.20;;;9.33;;
5587;SDS011;2816;49.778;9.986;2024-01-30T12:58:59;14.17;;;10.20;;
5587;SDS011;2816;49.778;9.986;2024-01-30T13:01:26;16.33;;;11.97;;
5587;SDS011;2816;49.778;9.986;2024-01-30T13:03:53;18.20;;;8.97;;
5587;SDS011;2816;49.778;9.986;2024-01-30T13:06:22;14.77;;;10.07;;
5587;SDS011;2816;49.778;9.986;2024-01-30T13:08:49;12.00;;;8.87;;
5587;SDS011;2816;49.778;9.986;2024-01-30T13:11:17;14.27;;;9.20;;
5587;SDS011;2816;49.778;9.986;2024-01-30T13:13:45;12.43;;;9.20;;
5587;SDS011;2816;49.778;9.986;2024-01-30T13:16:13;14.27;;;9.70;;
5587;SDS011;2816;49.778;9.986;2024-01-30T13:18:40;12.70;;;9.70;;
5587;SDS011;2816;49.778;9.986;2024-01-30T13:21:07;15.30;;;10.37;;
5587;SDS011;2816;49.778;9.986;2024-01-30T13:23:34;15.43;;;9.57;;
5587;SDS011;2816;49.778;9.986;2024-01-30T13:26:01;9.87;;;8.83;;
5587;SDS011;2816;49.778;9.986;2024-01-30T13:28:28;13.97;;;9.30;;
5587;SDS011;2816;49.778;9.986;2024-01-30T13:30:55;15.40;;;10.33;;
5587;SDS011;2816;49.778;9.986;2024-01-30T13:33:23;14.07;;;9.07;;
5587;SDS011;2816;49.778;9.986;2024-01-30T13:35:50;13.93;;;9.23;;
5587;SDS011;2816;49.778;9.986;2024-01-30T13:38:17;12.03;;;9.13;;
5587;SDS011;2816;49.778;9.986;2024-01-30T13:40:44;12.17;;;8.93;;
5587;SDS011;2816;49.778;9.986;2024-01-30T13:43:11;13.43;;;8.70;;
5587;SDS011;2816;49.778;9.986;2024-01-30T13:45:38;17.40;;;10.37;;
5587;SDS011;2816;49.778;9.986;2024-01-30T13:48:07;14.27;;;9.70;;
5587;SDS011;2816;49.778;9.986;2024-01-30T13:50:35;11.57;;;9.03;;
5587;SDS011;2816;49.778;9.986;2024-01-30T13:53:02;18.10;;;11.30;;
5587;SDS011;2816;49.778;9.986;2024-01-30T13:55:29;18.07;;;11.03;;
5587;SDS011;2816;49.778;9.986;2024-01-30T13:57:56;15.80;;;10.17;;
5587;SDS011;2816;49.778;9.986;2024-01-30T14:00:23;15.13;;;10.33;;
5587;SDS011;2816;49.778;9.986;2024-01-30T14:02:51;13.40;;;9.80;;
5587;SDS011;2816;49.778;9.986;2024-01-30T14:05:19;16.83;;;10.70;;
5587;SDS011;2816;49.778;9.986;2024-01-30T14:07:50;13.60;;;9.60;;
5587;SDS011;2816;49.778;9.986;2024-01-30T14:10:18;14.40;;;9.43;;
5587;SDS011;2816;49.778;9.986;2024-01-30T14:12:45;31.53;;;14.07;;
5587;SDS011;2816;49.778;9.986;2024-01-30T14:15:14;14.37;;;10.13;;
5587;SDS011;2816;49.778;9.986;2024-01-30T14:17:43;32.30;;;13.70;;
5587;SDS011;2816;49.778;9.986;2024-01-30T14:20:13;15.80;;;9.70;;
5587;SDS011;2816;49.778;9.986;2024-01-30T14:22:41;19.83;;;11.27;;
5587;SDS011;2816;49.778;9.986;2024-01-30T14:25:10;17.00;;;10.70;;
5587;SDS011;2816;49.778;9.986;2024-01-30T14:27:37;24.63;;;12.40;;
5587;SDS011;2816;49.778;9.986;2024-01-30T14:30:04;21.00;;;10.97;;
5587;SDS011;2816;49.778;9.986;2024-01-30T14:32:32;52.80;;;18.07;;
5587;SDS011;2816;49.778;9.986;2024-01-30T14:35:00;30.93;;;11.30;;
5587;SDS011;2816;49.778;9.986;2024-01-30T14:37:27;30.23;;;14.20;;
5587;SDS011;2816;49.778;9.986;2024-01-30T14:39:55;28.70;;;13.07;;
5587;SDS011;2816;49.778;9.986;2024-01-30T14:42:23;20.00;;;11.57;;
5587;SDS011;2816;49.778;9.986;2024-01-30T14:44:50;22.17;;;11.57;;
5587;SDS011;2816;49.778;9.986;2024-01-30T14:47:17;14.33;;;10.60;;
5587;SDS011;2816;49.778;9.986;2024-01-30T14:49:44;22.23;;;10.63;;
5587;SDS011;2816;49.778;9.986;2024-01-30T14:52:11;15.30;;;10.47;;